sensor_id;sensor_type;location;lat;lon;timestamp;temperature;humidity
2300;DHT22;1158;48.750;9.078;2022-07-29T00:01:22;18.30;99.90
2300;DHT22;1158;48.750;9.078;2022-07-29T00:03:49;18.30;99.90
2300;DHT22;1158;48.750;9.078;2022-07-29T00:06:15;18.30;99.90
2300;DHT22;1158;48.750;9.078;2022-07-29T00:08:42;18.20;99.90
2300;DHT22;1158;48.750;9.078;2022-07-29T00:11:09;18.20;99.90
2300;DHT22;1158;48.750;9.078;2022-07-29T00:13:35;18.30;99.90
2300;DHT22;1158;48.750;9.078;2022-07-29T00:16:04;18.30;99.90
2300;DHT22;1158;48.750;9.078;2022-07-29T00:18:31;18.20;99.90
2300;DHT22;1158;48.750;9.078;2022-07-29T00:20:58;18.20;99.90
2300;DHT22;1158;48.750;9.078;2022-07-29T00:23:25;18.10;99.90
2300;DHT22;1158;48.750;9.078;2022-07-29T00:25:51;18.10;99.90
2300;DHT22;1158;48.750;9.078;2022-07-29T00:28:18;18.10;99.90
2300;DHT22;1158;48.750;9.078;2022-07-29T00:30:45;18.00;99.90
2300;DHT22;1158;48.750;9.078;2022-07-29T00:33:13;18.00;99.90
2300;DHT22;1158;48.750;9.078;2022-07-29T00:35:39;17.90;99.90
2300;DHT22;1158;48.750;9.078;2022-07-29T00:38:12;17.90;99.90
2300;DHT22;1158;48.750;9.078;2022-07-29T00:40:39;17.70;99.90
2300;DHT22;1158;48.750;9.078;2022-07-29T00:43:05;17.60;99.90
2300;DHT22;1158;48.750;9.078;2022-07-29T00:45:32;17.60;99.90
2300;DHT22;1158;48.750;9.078;2022-07-29T00:47:59;17.60;99.90
2300;DHT22;1158;48.750;9.078;2022-07-29T00:50:27;17.50;99.90
2300;DHT22;1158;48.750;9.078;2022-07-29T00:52:54;17.50;99.90
2300;DHT22;1158;48.750;9.078;2022-07-29T00:55:21;17.50;99.90
2300;DHT22;1158;48.750;9.078;2022-07-29T00:57:48;17.40;99.90
2300;DHT22;1158;48.750;9.078;2022-07-29T01:00:17;17.40;99.90
2300;DHT22;1158;48.750;9.078;2022-07-29T01:02:45;17.40;99.90
2300;DHT22;1158;48.750;9.078;2022-07-29T01:05:15;17.40;99.90
2300;DHT22;1158;48.750;9.078;2022-07-29T01:07:45;17.30;99.90
2300;DHT22;1158;48.750;9.078;2022-07-29T01:10:13;17.30;99.90
2300;DHT22;1158;48.750;9.078;2022-07-29T01:12:43;17.40;99.90
2300;DHT22;1158;48.750;9.078;2022-07-29T01:15:11;17.30;99.90
2300;DHT22;1158;48.750;9.078;2022-07-29T01:17:43;17.30;99.90
2300;DHT22;1158;48.750;9.078;2022-07-29T01:20:15;17.30;99.90
2300;DHT22;1158;48.750;9.078;2022-07-29T01:23:27;17.20;99.90
2300;DHT22;1158;48.750;9.078;2022-07-29T01:26:28;17.30;99.90
2300;DHT22;1158;48.750;9.078;2022-07-29T01:29:08;17.30;99.90
2300;DHT22;1158;48.750;9.078;2022-07-29T01:31:43;17.30;99.90
2300;DHT22;1158;48.750;9.078;2022-07-29T01:34:17;17.30;99.90
2300;DHT22;1158;48.750;9.078;2022-07-29T01:36:48;17.20;99.90
2300;DHT22;1158;48.750;9.078;2022-07-29T01:39:19;17.20;99.90
2300;DHT22;1158;48.750;9.078;2022-07-29T01:41:50;17.10;99.90
2300;DHT22;1158;48.750;9.078;2022-07-29T01:44:26;17.10;99.90
2300;DHT22;1158;48.750;9.078;2022-07-29T01:46:57;17.00;99.90
2300;DHT22;1158;48.750;9.078;2022-07-29T01:49:28;17.00;99.90
2300;DHT22;1158;48.750;9.078;2022-07-29T01:52:05;17.00;99.90
2300;DHT22;1158;48.750;9.078;2022-07-29T01:54:35;16.90;99.90
2300;DHT22;1158;48.750;9.078;2022-07-29T01:57:04;16.90;99.90
2300;DHT22;1158;48.750;9.078;2022-07-29T01:59:35;16.90;99.90
2300;DHT22;1158;48.750;9.078;2022-07-29T02:02:05;16.90;99.90
2300;DHT22;1158;48.750;9.078;2022-07-29T02:04:34;16.90;99.90
2300;DHT22;1158;48.750;9.078;2022-07-29T02:07:05;17.00;99.90
2300;DHT22;1158;48.750;9.078;2022-07-29T02:09:34;17.10;99.90
2300;DHT22;1158;48.750;9.078;2022-07-29T02:12:03;17.10;99.90
2300;DHT22;1158;48.750;9.078;2022-07-29T02:14:35;17.00;99.90
2300;DHT22;1158;48.750;9.078;2022-07-29T02:17:02;17.00;99.90
2300;DHT22;1158;48.750;9.078;2022-07-29T02:19:31;17.00;99.90
2300;DHT22;1158;48.750;9.078;2022-07-29T02:22:00;17.00;99.90
2300;DHT22;1158;48.750;9.078;2022-07-29T02:24:28;17.00;99.90
2300;DHT22;1158;48.750;9.078;2022-07-29T02:26:56;16.90;99.90
2300;DHT22;1158;48.750;9.078;2022-07-29T02:29:26;16.90;99.90
2300;DHT22;1158;48.750;9.078;2022-07-29T02:31:56;16.90;99.90
2300;DHT22;1158;48.750;9.078;2022-07-29T02:34:24;16.90;99.90
2300;DHT22;1158;48.750;9.078;2022-07-29T02:36:52;16.80;99.90
2300;DHT22;1158;48.750;9.078;2022-07-29T02:39:22;16.80;99.90
2300;DHT22;1158;48.750;9.078;2022-07-29T02:41:52;16.80;99.90
2300;DHT22;1158;48.750;9.078;2022-07-29T02:44:22;16.70;99.90
2300;DHT22;1158;48.750;9.078;2022-07-29T02:46:52;16.60;99.90
2300;DHT22;1158;48.750;9.078;2022-07-29T02:49:31;16.70;99.90
2300;DHT22;1158;48.750;9.078;2022-07-29T02:52:03;16.60;99.90
2300;DHT22;1158;48.750;9.078;2022-07-29T02:54:37;16.50;99.90
2300;DHT22;1158;48.750;9.078;2022-07-29T02:57:09;16.50;99.90
2300;DHT22;1158;48.750;9.078;2022-07-29T02:59:41;16.50;99.90
2300;DHT22;1158;48.750;9.078;2022-07-29T03:02:09;16.40;99.90
2300;DHT22;1158;48.750;9.078;2022-07-29T03:04:40;16.40;99.90
2300;DHT22;1158;48.750;9.078;2022-07-29T03:07:09;16.40;99.90
2300;DHT22;1158;48.750;9.078;2022-07-29T03:09:37;16.40;99.90
2300;DHT22;1158;48.750;9.078;2022-07-29T03:12:05;16.40;99.90
2300;DHT22;1158;48.750;9.078;2022-07-29T03:14:32;16.40;99.90
2300;DHT22;1158;48.750;9.078;2022-07-29T03:17:00;16.40;99.90
2300;DHT22;1158;48.750;9.078;2022-07-29T03:19:27;16.50;99.90
2300;DHT22;1158;48.750;9.078;2022-07-29T03:21:57;16.40;99.90
2300;DHT22;1158;48.750;9.078;2022-07-29T03:24:25;16.30;99.90
2300;DHT22;1158;48.750;9.078;2022-07-29T03:26:52;16.20;99.90
2300;DHT22;1158;48.750;9.078;2022-07-29T03:29:19;16.10;99.90
2300;DHT22;1158;48.750;9.078;2022-07-29T03:31:46;16.00;99.90
2300;DHT22;1158;48.750;9.078;2022-07-29T03:34:12;16.10;99.90
2300;DHT22;1158;48.750;9.078;2022-07-29T03:36:39;16.00;99.90
2300;DHT22;1158;48.750;9.078;2022-07-29T03:39:08;16.00;99.90
2300;DHT22;1158;48.750;9.078;2022-07-29T03:41:36;16.00;99.90
2300;DHT22;1158;48.750;9.078;2022-07-29T03:44:04;16.00;99.90
2300;DHT22;1158;48.750;9.078;2022-07-29T03:46:34;15.90;99.90
2300;DHT22;1158;48.750;9.078;2022-07-29T03:49:04;15.90;99.90
2300;DHT22;1158;48.750;9.078;2022-07-29T03:51:33;15.80;99.90
2300;DHT22;1158;48.750;9.078;2022-07-29T03:54:01;15.70;99.90
2300;DHT22;1158;48.750;9.078;2022-07-29T03:56:29;15.70;99.90
2300;DHT22;1158;48.750;9.078;2022-07-29T03:58:58;15.70;99.90
2300;DHT22;1158;48.750;9.078;2022-07-29T04:01:27;15.70;99.90
2300;DHT22;1158;48.750;9.078;2022-07-29T04:03:55;15.60;99.90
2300;DHT22;1158;48.750;9.078;2022-07-29T04:06:21;15.60;99.90
2300;DHT22;1158;48.750;9.078;2022-07-29T04:08:48;15.60;99.90
2300;DHT22;1158;48.750;9.078;2022-07-29T04:11:15;15.60;99.90
2300;DHT22;1158;48.750;9.078;2022-07-29T04:13:43;15.50;99.90
2300;DHT22;1158;48.750;9.078;2022-07-29T04:16:09;15.50;99.90
2300;DHT22;1158;48.750;9.078;2022-07-29T04:18:36;15.50;99.90
2300;DHT22;1158;48.750;9.078;2022-07-29T04:21:03;15.50;99.90
2300;DHT22;1158;48.750;9.078;2022-07-29T04:23:30;15.50;99.90
2300;DHT22;1158;48.750;9.078;2022-07-29T04:25:57;15.50;99.90
2300;DHT22;1158;48.750;9.078;2022-07-29T04:28:25;15.50;99.90
2300;DHT22;1158;48.750;9.078;2022-07-29T04:30:53;15.50;99.90
2300;DHT22;1158;48.750;9.078;2022-07-29T04:33:20;15.50;99.90
2300;DHT22;1158;48.750;9.078;2022-07-29T04:35:47;15.70;99.90
2300;DHT22;1158;48.750;9.078;2022-07-29T04:38:13;15.70;99.90
2300;DHT22;1158;48.750;9.078;2022-07-29T04:40:40;15.90;99.90
2300;DHT22;1158;48.750;9.078;2022-07-29T04:43:06;16.00;99.90
2300;DHT22;1158;48.750;9.078;2022-07-29T04:45:33;16.10;99.90
2300;DHT22;1158;48.750;9.078;2022-07-29T04:48:01;16.20;99.90
2300;DHT22;1158;48.750;9.078;2022-07-29T04:50:28;16.30;99.90
2300;DHT22;1158;48.750;9.078;2022-07-29T04:52:55;16.30;99.90
2300;DHT22;1158;48.750;9.078;2022-07-29T04:55:21;16.40;99.90
2300;DHT22;1158;48.750;9.078;2022-07-29T04:57:48;16.50;99.90
2300;DHT22;1158;48.750;9.078;2022-07-29T05:00:15;16.60;99.90
2300;DHT22;1158;48.750;9.078;2022-07-29T05:02:41;16.80;99.90
2300;DHT22;1158;48.750;9.078;2022-07-29T05:05:09;16.90;99.90
2300;DHT22;1158;48.750;9.078;2022-07-29T05:07:36;17.10;99.90
2300;DHT22;1158;48.750;9.078;2022-07-29T05:10:04;17.20;99.90
2300;DHT22;1158;48.750;9.078;2022-07-29T05:12:30;17.30;99.90
2300;DHT22;1158;48.750;9.078;2022-07-29T05:14:57;17.50;99.90
2300;DHT22;1158;48.750;9.078;2022-07-29T05:17:24;17.70;99.90
2300;DHT22;1158;48.750;9.078;2022-07-29T05:19:50;17.80;99.90
2300;DHT22;1158;48.750;9.078;2022-07-29T05:22:19;18.00;99.90
2300;DHT22;1158;48.750;9.078;2022-07-29T05:24:46;18.10;99.90
2300;DHT22;1158;48.750;9.078;2022-07-29T05:27:13;18.30;99.90
2300;DHT22;1158;48.750;9.078;2022-07-29T05:29:39;18.50;99.90
2300;DHT22;1158;48.750;9.078;2022-07-29T05:32:06;18.60;99.90
2300;DHT22;1158;48.750;9.078;2022-07-29T05:34:33;18.80;99.90
2300;DHT22;1158;48.750;9.078;2022-07-29T05:37:00;19.00;99.90
2300;DHT22;1158;48.750;9.078;2022-07-29T05:39:28;19.10;99.90
2300;DHT22;1158;48.750;9.078;2022-07-29T05:41:55;19.30;99.90
2300;DHT22;1158;48.750;9.078;2022-07-29T05:44:22;19.40;99.90
2300;DHT22;1158;48.750;9.078;2022-07-29T05:46:48;19.50;99.90
2300;DHT22;1158;48.750;9.078;2022-07-29T05:49:15;19.70;99.90
2300;DHT22;1158;48.750;9.078;2022-07-29T05:51:42;19.80;99.90
2300;DHT22;1158;48.750;9.078;2022-07-29T05:54:08;20.00;99.90
2300;DHT22;1158;48.750;9.078;2022-07-29T05:56:37;20.20;99.90
2300;DHT22;1158;48.750;9.078;2022-07-29T05:59:04;20.50;99.90
2300;DHT22;1158;48.750;9.078;2022-07-29T06:01:30;21.20;99.90
2300;DHT22;1158;48.750;9.078;2022-07-29T06:03:57;21.80;99.90
2300;DHT22;1158;48.750;9.078;2022-07-29T06:06:24;21.80;99.90
2300;DHT22;1158;48.750;9.078;2022-07-29T06:08:51;22.00;99.90
2300;DHT22;1158;48.750;9.078;2022-07-29T06:11:17;22.50;99.90
2300;DHT22;1158;48.750;9.078;2022-07-29T06:13:45;23.30;99.90
2300;DHT22;1158;48.750;9.078;2022-07-29T06:16:22;23.60;99.90
2300;DHT22;1158;48.750;9.078;2022-07-29T06:18:48;24.80;99.90
2300;DHT22;1158;48.750;9.078;2022-07-29T06:21:15;25.40;99.90
2300;DHT22;1158;48.750;9.078;2022-07-29T06:23:42;24.80;99.90
2300;DHT22;1158;48.750;9.078;2022-07-29T06:26:08;23.50;99.90
2300;DHT22;1158;48.750;9.078;2022-07-29T06:28:35;23.20;99.90
2300;DHT22;1158;48.750;9.078;2022-07-29T06:31:04;22.70;99.90
2300;DHT22;1158;48.750;9.078;2022-07-29T06:33:31;22.50;99.90
2300;DHT22;1158;48.750;9.078;2022-07-29T06:35:58;22.40;99.90
2300;DHT22;1158;48.750;9.078;2022-07-29T06:38:25;22.80;99.90
2300;DHT22;1158;48.750;9.078;2022-07-29T06:40:52;24.30;99.90
2300;DHT22;1158;48.750;9.078;2022-07-29T06:43:29;25.20;99.90
2300;DHT22;1158;48.750;9.078;2022-07-29T06:45:58;24.90;99.90
2300;DHT22;1158;48.750;9.078;2022-07-29T06:48:26;25.10;99.90
2300;DHT22;1158;48.750;9.078;2022-07-29T06:50:53;24.90;99.90
2300;DHT22;1158;48.750;9.078;2022-07-29T06:53:20;24.80;99.90
2300;DHT22;1158;48.750;9.078;2022-07-29T06:55:47;24.50;99.90
2300;DHT22;1158;48.750;9.078;2022-07-29T06:58:13;24.80;99.90
2300;DHT22;1158;48.750;9.078;2022-07-29T07:00:41;25.10;99.90
2300;DHT22;1158;48.750;9.078;2022-07-29T07:03:08;26.00;99.90
2300;DHT22;1158;48.750;9.078;2022-07-29T07:05:36;27.10;99.90
2300;DHT22;1158;48.750;9.078;2022-07-29T07:08:03;28.00;99.90
2300;DHT22;1158;48.750;9.078;2022-07-29T07:10:30;28.00;99.90
2300;DHT22;1158;48.750;9.078;2022-07-29T07:12:57;28.10;99.90
2300;DHT22;1158;48.750;9.078;2022-07-29T07:15:23;28.20;99.90
2300;DHT22;1158;48.750;9.078;2022-07-29T07:17:50;27.40;99.90
2300;DHT22;1158;48.750;9.078;2022-07-29T07:20:17;27.40;99.90
2300;DHT22;1158;48.750;9.078;2022-07-29T07:22:45;27.20;99.90
2300;DHT22;1158;48.750;9.078;2022-07-29T07:25:13;27.40;99.90
2300;DHT22;1158;48.750;9.078;2022-07-29T07:27:39;27.10;99.90
2300;DHT22;1158;48.750;9.078;2022-07-29T07:30:07;27.30;99.90
2300;DHT22;1158;48.750;9.078;2022-07-29T07:32:34;27.60;99.90
2300;DHT22;1158;48.750;9.078;2022-07-29T07:35:02;27.70;99.90
2300;DHT22;1158;48.750;9.078;2022-07-29T07:37:29;28.60;99.90
2300;DHT22;1158;48.750;9.078;2022-07-29T07:39:57;28.90;99.90
2300;DHT22;1158;48.750;9.078;2022-07-29T07:42:24;29.80;99.90
2300;DHT22;1158;48.750;9.078;2022-07-29T07:44:51;31.20;99.90
2300;DHT22;1158;48.750;9.078;2022-07-29T07:47:18;31.70;99.90
2300;DHT22;1158;48.750;9.078;2022-07-29T07:49:45;30.90;99.90
2300;DHT22;1158;48.750;9.078;2022-07-29T07:52:12;30.40;99.90
2300;DHT22;1158;48.750;9.078;2022-07-29T07:54:39;29.40;99.90
2300;DHT22;1158;48.750;9.078;2022-07-29T07:57:07;29.30;99.90
2300;DHT22;1158;48.750;9.078;2022-07-29T07:59:33;28.70;99.90
2300;DHT22;1158;48.750;9.078;2022-07-29T08:02:00;28.80;99.90
2300;DHT22;1158;48.750;9.078;2022-07-29T08:04:27;28.80;99.90
2300;DHT22;1158;48.750;9.078;2022-07-29T08:06:54;30.00;99.80
2300;DHT22;1158;48.750;9.078;2022-07-29T08:09:21;30.10;98.70
2300;DHT22;1158;48.750;9.078;2022-07-29T08:11:47;30.10;97.50
2300;DHT22;1158;48.750;9.078;2022-07-29T08:14:15;29.80;97.70
2300;DHT22;1158;48.750;9.078;2022-07-29T08:16:42;30.20;97.60
2300;DHT22;1158;48.750;9.078;2022-07-29T08:19:09;30.90;96.30
2300;DHT22;1158;48.750;9.078;2022-07-29T08:21:36;30.60;96.60
2300;DHT22;1158;48.750;9.078;2022-07-29T08:24:04;30.00;96.00
2300;DHT22;1158;48.750;9.078;2022-07-29T08:26:49;30.10;96.90
2300;DHT22;1158;48.750;9.078;2022-07-29T08:29:17;31.20;95.70
2300;DHT22;1158;48.750;9.078;2022-07-29T08:31:43;30.40;95.50
2300;DHT22;1158;48.750;9.078;2022-07-29T08:34:11;31.40;95.50
2300;DHT22;1158;48.750;9.078;2022-07-29T08:36:39;31.70;93.90
2300;DHT22;1158;48.750;9.078;2022-07-29T08:39:06;31.40;94.70
2300;DHT22;1158;48.750;9.078;2022-07-29T08:41:33;30.90;93.90
2300;DHT22;1158;48.750;9.078;2022-07-29T08:43:59;29.60;94.90
2300;DHT22;1158;48.750;9.078;2022-07-29T08:46:27;29.00;97.40
2300;DHT22;1158;48.750;9.078;2022-07-29T08:48:55;30.20;96.40
2300;DHT22;1158;48.750;9.078;2022-07-29T08:51:22;31.20;94.50
2300;DHT22;1158;48.750;9.078;2022-07-29T08:53:49;31.30;95.00
2300;DHT22;1158;48.750;9.078;2022-07-29T08:56:18;30.50;93.90
2300;DHT22;1158;48.750;9.078;2022-07-29T08:58:46;30.80;94.20
2300;DHT22;1158;48.750;9.078;2022-07-29T09:01:28;31.40;93.40
2300;DHT22;1158;48.750;9.078;2022-07-29T09:03:56;31.90;92.70
2300;DHT22;1158;48.750;9.078;2022-07-29T09:06:23;32.50;91.80
2300;DHT22;1158;48.750;9.078;2022-07-29T09:08:53;32.20;91.20
2300;DHT22;1158;48.750;9.078;2022-07-29T09:11:21;31.70;91.60
2300;DHT22;1158;48.750;9.078;2022-07-29T09:13:47;32.20;91.20
2300;DHT22;1158;48.750;9.078;2022-07-29T09:16:15;32.70;90.40
2300;DHT22;1158;48.750;9.078;2022-07-29T09:18:44;33.10;90.70
2300;DHT22;1158;48.750;9.078;2022-07-29T09:21:13;32.10;90.20
2300;DHT22;1158;48.750;9.078;2022-07-29T09:24:06;31.60;90.30
2300;DHT22;1158;48.750;9.078;2022-07-29T09:26:35;32.40;90.10
2300;DHT22;1158;48.750;9.078;2022-07-29T09:29:08;32.30;89.60
2300;DHT22;1158;48.750;9.078;2022-07-29T09:31:37;32.90;90.30
2300;DHT22;1158;48.750;9.078;2022-07-29T09:34:06;32.60;88.70
2300;DHT22;1158;48.750;9.078;2022-07-29T09:36:39;33.20;88.60
2300;DHT22;1158;48.750;9.078;2022-07-29T09:39:06;33.50;85.70
2300;DHT22;1158;48.750;9.078;2022-07-29T09:41:47;33.10;85.90
2300;DHT22;1158;48.750;9.078;2022-07-29T09:44:14;32.50;87.50
2300;DHT22;1158;48.750;9.078;2022-07-29T09:46:53;31.90;86.60
2300;DHT22;1158;48.750;9.078;2022-07-29T09:49:21;30.90;88.30
2300;DHT22;1158;48.750;9.078;2022-07-29T09:51:48;30.20;90.80
2300;DHT22;1158;48.750;9.078;2022-07-29T09:54:26;30.20;90.40
2300;DHT22;1158;48.750;9.078;2022-07-29T09:56:54;29.40;90.90
2300;DHT22;1158;48.750;9.078;2022-07-29T09:59:21;29.00;91.50
2300;DHT22;1158;48.750;9.078;2022-07-29T10:01:51;29.30;91.50
2300;DHT22;1158;48.750;9.078;2022-07-29T10:04:20;29.10;91.80
2300;DHT22;1158;48.750;9.078;2022-07-29T10:06:57;30.10;92.20
2300;DHT22;1158;48.750;9.078;2022-07-29T10:09:24;30.70;91.10
2300;DHT22;1158;48.750;9.078;2022-07-29T10:12:08;30.90;92.00
2300;DHT22;1158;48.750;9.078;2022-07-29T10:14:36;30.90;90.30
2300;DHT22;1158;48.750;9.078;2022-07-29T10:17:05;30.30;90.20
2300;DHT22;1158;48.750;9.078;2022-07-29T10:19:34;29.60;90.40
2300;DHT22;1158;48.750;9.078;2022-07-29T10:22:04;28.80;92.00
2300;DHT22;1158;48.750;9.078;2022-07-29T10:24:31;28.10;93.70
2300;DHT22;1158;48.750;9.078;2022-07-29T10:26:59;27.70;94.60
2300;DHT22;1158;48.750;9.078;2022-07-29T10:29:27;27.20;95.80
2300;DHT22;1158;48.750;9.078;2022-07-29T10:32:10;26.60;97.00
2300;DHT22;1158;48.750;9.078;2022-07-29T10:37:40;25.60;99.00
2300;DHT22;1158;48.750;9.078;2022-07-29T10:40:15;25.50;99.80
2300;DHT22;1158;48.750;9.078;2022-07-29T10:43:14;25.00;99.90
2300;DHT22;1158;48.750;9.078;2022-07-29T10:45:43;24.90;99.90
2300;DHT22;1158;48.750;9.078;2022-07-29T10:48:10;24.60;99.90
2300;DHT22;1158;48.750;9.078;2022-07-29T10:50:54;24.20;99.90
2300;DHT22;1158;48.750;9.078;2022-07-29T10:53:21;23.60;99.90
2300;DHT22;1158;48.750;9.078;2022-07-29T10:55:49;22.60;99.90
2300;DHT22;1158;48.750;9.078;2022-07-29T10:58:19;21.10;99.90
2300;DHT22;1158;48.750;9.078;2022-07-29T11:00:47;20.40;99.90
2300;DHT22;1158;48.750;9.078;2022-07-29T11:03:43;19.90;99.90
2300;DHT22;1158;48.750;9.078;2022-07-29T11:06:13;19.30;99.90
2300;DHT22;1158;48.750;9.078;2022-07-29T11:08:40;18.90;99.90
2300;DHT22;1158;48.750;9.078;2022-07-29T11:11:37;18.90;99.90
2300;DHT22;1158;48.750;9.078;2022-07-29T11:14:06;18.70;99.90
2300;DHT22;1158;48.750;9.078;2022-07-29T11:16:58;18.90;99.90
2300;DHT22;1158;48.750;9.078;2022-07-29T11:19:26;19.10;99.90
2300;DHT22;1158;48.750;9.078;2022-07-29T11:21:54;19.10;99.90
2300;DHT22;1158;48.750;9.078;2022-07-29T11:24:23;19.00;99.90
2300;DHT22;1158;48.750;9.078;2022-07-29T11:27:19;19.10;99.90
2300;DHT22;1158;48.750;9.078;2022-07-29T11:29:49;19.10;99.90
2300;DHT22;1158;48.750;9.078;2022-07-29T11:32:17;19.20;99.90
2300;DHT22;1158;48.750;9.078;2022-07-29T11:34:45;19.20;99.90
2300;DHT22;1158;48.750;9.078;2022-07-29T11:37:18;19.20;99.90
2300;DHT22;1158;48.750;9.078;2022-07-29T11:39:47;19.40;99.90
2300;DHT22;1158;48.750;9.078;2022-07-29T11:42:51;19.50;99.90
2300;DHT22;1158;48.750;9.078;2022-07-29T11:45:26;19.70;99.90
2300;DHT22;1158;48.750;9.078;2022-07-29T11:47:58;20.00;99.90
2300;DHT22;1158;48.750;9.078;2022-07-29T11:50:36;20.30;99.90
2300;DHT22;1158;48.750;9.078;2022-07-29T11:53:11;20.50;99.90
2300;DHT22;1158;48.750;9.078;2022-07-29T11:55:39;20.40;99.90
2300;DHT22;1158;48.750;9.078;2022-07-29T11:58:06;20.20;99.90
2300;DHT22;1158;48.750;9.078;2022-07-29T12:00:34;20.20;99.90
2300;DHT22;1158;48.750;9.078;2022-07-29T12:03:02;20.40;99.90
2300;DHT22;1158;48.750;9.078;2022-07-29T12:05:35;20.60;99.90
2300;DHT22;1158;48.750;9.078;2022-07-29T12:08:12;20.80;99.90
2300;DHT22;1158;48.750;9.078;2022-07-29T12:10:39;20.90;99.90
2300;DHT22;1158;48.750;9.078;2022-07-29T12:13:07;21.30;99.90
2300;DHT22;1158;48.750;9.078;2022-07-29T12:15:34;21.70;99.90
2300;DHT22;1158;48.750;9.078;2022-07-29T12:18:10;21.90;99.90
2300;DHT22;1158;48.750;9.078;2022-07-29T12:20:37;21.80;99.90
2300;DHT22;1158;48.750;9.078;2022-07-29T12:23:06;21.60;99.90
2300;DHT22;1158;48.750;9.078;2022-07-29T12:25:35;21.50;99.90
2300;DHT22;1158;48.750;9.078;2022-07-29T12:28:04;21.50;99.90
2300;DHT22;1158;48.750;9.078;2022-07-29T12:30:40;21.30;99.90
2300;DHT22;1158;48.750;9.078;2022-07-29T12:33:24;21.20;99.90
2300;DHT22;1158;48.750;9.078;2022-07-29T12:35:53;21.30;99.90
2300;DHT22;1158;48.750;9.078;2022-07-29T12:38:21;21.20;99.90
2300;DHT22;1158;48.750;9.078;2022-07-29T12:40:49;21.20;99.90
2300;DHT22;1158;48.750;9.078;2022-07-29T12:43:20;21.00;99.90
2300;DHT22;1158;48.750;9.078;2022-07-29T12:45:48;20.80;99.90
2300;DHT22;1158;48.750;9.078;2022-07-29T12:48:16;20.60;99.90
2300;DHT22;1158;48.750;9.078;2022-07-29T12:50:56;20.40;99.90
2300;DHT22;1158;48.750;9.078;2022-07-29T12:53:23;20.50;99.90
2300;DHT22;1158;48.750;9.078;2022-07-29T12:55:53;20.50;99.90
2300;DHT22;1158;48.750;9.078;2022-07-29T12:58:28;20.40;99.90
2300;DHT22;1158;48.750;9.078;2022-07-29T13:01:07;20.50;99.90
2300;DHT22;1158;48.750;9.078;2022-07-29T13:03:49;20.40;99.90
2300;DHT22;1158;48.750;9.078;2022-07-29T13:06:30;20.30;99.90
2300;DHT22;1158;48.750;9.078;2022-07-29T13:08:59;20.00;99.90
2300;DHT22;1158;48.750;9.078;2022-07-29T13:11:32;19.80;99.90
2300;DHT22;1158;48.750;9.078;2022-07-29T13:13:59;19.50;99.90
2300;DHT22;1158;48.750;9.078;2022-07-29T13:16:27;19.20;99.90
2300;DHT22;1158;48.750;9.078;2022-07-29T13:19:07;18.90;99.90
2300;DHT22;1158;48.750;9.078;2022-07-29T13:21:36;18.70;99.90
2300;DHT22;1158;48.750;9.078;2022-07-29T13:24:03;18.50;99.90
2300;DHT22;1158;48.750;9.078;2022-07-29T13:26:32;18.40;99.90
2300;DHT22;1158;48.750;9.078;2022-07-29T13:28:59;18.30;99.90
2300;DHT22;1158;48.750;9.078;2022-07-29T13:31:26;18.20;99.90
2300;DHT22;1158;48.750;9.078;2022-07-29T13:33:53;18.20;99.90
2300;DHT22;1158;48.750;9.078;2022-07-29T13:36:19;18.20;99.90
2300;DHT22;1158;48.750;9.078;2022-07-29T13:38:46;18.30;99.90
2300;DHT22;1158;48.750;9.078;2022-07-29T13:41:13;18.40;99.90
2300;DHT22;1158;48.750;9.078;2022-07-29T13:43:41;18.70;99.90
2300;DHT22;1158;48.750;9.078;2022-07-29T13:46:07;19.10;99.90
2300;DHT22;1158;48.750;9.078;2022-07-29T13:48:34;19.50;99.90
2300;DHT22;1158;48.750;9.078;2022-07-29T13:51:01;20.10;99.90
2300;DHT22;1158;48.750;9.078;2022-07-29T13:53:27;20.60;99.90
2300;DHT22;1158;48.750;9.078;2022-07-29T13:55:54;21.00;99.90
2300;DHT22;1158;48.750;9.078;2022-07-29T13:58:21;21.30;99.90
2300;DHT22;1158;48.750;9.078;2022-07-29T14:00:49;21.70;99.90
2300;DHT22;1158;48.750;9.078;2022-07-29T14:03:16;22.20;99.90
2300;DHT22;1158;48.750;9.078;2022-07-29T14:05:43;22.10;99.90
2300;DHT22;1158;48.750;9.078;2022-07-29T14:08:10;22.10;99.90
2300;DHT22;1158;48.750;9.078;2022-07-29T14:10:36;22.40;99.90
2300;DHT22;1158;48.750;9.078;2022-07-29T14:13:03;22.50;99.90
2300;DHT22;1158;48.750;9.078;2022-07-29T14:15:30;22.50;99.90
2300;DHT22;1158;48.750;9.078;2022-07-29T14:17:58;22.90;99.90
2300;DHT22;1158;48.750;9.078;2022-07-29T14:20:24;22.60;99.90
2300;DHT22;1158;48.750;9.078;2022-07-29T14:22:51;22.90;99.90
2300;DHT22;1158;48.750;9.078;2022-07-29T14:25:18;22.80;99.90
2300;DHT22;1158;48.750;9.078;2022-07-29T14:27:44;22.70;99.90
2300;DHT22;1158;48.750;9.078;2022-07-29T14:30:12;23.20;99.90
2300;DHT22;1158;48.750;9.078;2022-07-29T14:32:38;23.20;99.90
2300;DHT22;1158;48.750;9.078;2022-07-29T14:35:07;23.40;99.90
2300;DHT22;1158;48.750;9.078;2022-07-29T14:37:34;23.70;99.90
2300;DHT22;1158;48.750;9.078;2022-07-29T14:40:02;23.40;99.90
2300;DHT22;1158;48.750;9.078;2022-07-29T14:42:29;23.20;99.90
2300;DHT22;1158;48.750;9.078;2022-07-29T14:44:56;23.40;99.90
2300;DHT22;1158;48.750;9.078;2022-07-29T14:47:23;23.70;99.90
2300;DHT22;1158;48.750;9.078;2022-07-29T14:49:50;23.50;99.90
2300;DHT22;1158;48.750;9.078;2022-07-29T14:52:18;23.40;99.90
2300;DHT22;1158;48.750;9.078;2022-07-29T14:54:45;23.40;99.90
2300;DHT22;1158;48.750;9.078;2022-07-29T14:57:11;23.70;99.90
2300;DHT22;1158;48.750;9.078;2022-07-29T14:59:38;23.70;99.90
2300;DHT22;1158;48.750;9.078;2022-07-29T15:02:05;23.70;99.90
2300;DHT22;1158;48.750;9.078;2022-07-29T15:04:31;23.80;99.90
2300;DHT22;1158;48.750;9.078;2022-07-29T15:06:58;23.90;99.90
2300;DHT22;1158;48.750;9.078;2022-07-29T15:09:26;24.00;99.90
2300;DHT22;1158;48.750;9.078;2022-07-29T15:11:53;24.00;99.90
2300;DHT22;1158;48.750;9.078;2022-07-29T15:14:19;23.70;99.90
2300;DHT22;1158;48.750;9.078;2022-07-29T15:16:46;23.90;99.90
2300;DHT22;1158;48.750;9.078;2022-07-29T15:19:13;23.70;99.90
2300;DHT22;1158;48.750;9.078;2022-07-29T15:21:40;23.80;99.90
2300;DHT22;1158;48.750;9.078;2022-07-29T15:24:06;23.80;99.90
2300;DHT22;1158;48.750;9.078;2022-07-29T15:26:34;23.80;99.90
2300;DHT22;1158;48.750;9.078;2022-07-29T15:29:01;23.80;99.90
2300;DHT22;1158;48.750;9.078;2022-07-29T15:31:28;23.80;99.90
2300;DHT22;1158;48.750;9.078;2022-07-29T15:33:54;23.80;99.90
2300;DHT22;1158;48.750;9.078;2022-07-29T15:36:21;23.80;99.90
2300;DHT22;1158;48.750;9.078;2022-07-29T15:38:48;23.80;99.90
2300;DHT22;1158;48.750;9.078;2022-07-29T15:41:15;24.00;99.90
2300;DHT22;1158;48.750;9.078;2022-07-29T15:43:44;23.90;99.90
2300;DHT22;1158;48.750;9.078;2022-07-29T15:46:13;23.70;99.90
2300;DHT22;1158;48.750;9.078;2022-07-29T15:48:57;23.80;99.90
2300;DHT22;1158;48.750;9.078;2022-07-29T15:51:24;23.70;99.90
2300;DHT22;1158;48.750;9.078;2022-07-29T15:53:51;23.50;99.90
2300;DHT22;1158;48.750;9.078;2022-07-29T15:56:17;23.50;99.90
2300;DHT22;1158;48.750;9.078;2022-07-29T15:58:45;23.60;99.90
2300;DHT22;1158;48.750;9.078;2022-07-29T16:01:12;23.50;99.90
2300;DHT22;1158;48.750;9.078;2022-07-29T16:03:39;23.50;99.90
2300;DHT22;1158;48.750;9.078;2022-07-29T16:06:06;23.40;99.90
2300;DHT22;1158;48.750;9.078;2022-07-29T16:08:32;23.20;99.90
2300;DHT22;1158;48.750;9.078;2022-07-29T16:10:59;23.20;99.90
2300;DHT22;1158;48.750;9.078;2022-07-29T16:13:26;23.20;99.90
2300;DHT22;1158;48.750;9.078;2022-07-29T16:15:54;23.30;99.90
2300;DHT22;1158;48.750;9.078;2022-07-29T16:18:20;23.10;99.90